Time;durP1;ratioP1;P1;durP2;ratioP2;P2;SDS_P1;SDS_P2;PMS_P1;PMS_P2;Temp;Humidity;BMP_temperature;BMP_pressure;BME280_temperature;BME280_humidity;BME280_pressure;Samples;Min_cycle;Max_cycle;Signal;HPM_P1;HPM_P2
2023/05/19 00:00:30;;;;;;;3.72;1.83;;;13.00;99.90;;;;;;4174288;28;20041;-61
2023/05/19 00:02:32;;;;;;;3.42;1.75;;;12.90;99.90;;;;;;4174108;28;20035;-61
2023/05/19 00:04:34;;;;;;;3.08;1.58;;;12.80;99.90;;;;;;4176492;28;20037;-60
2023/05/19 00:06:35;;;;;;;4.43;1.80;;;12.80;99.90;;;;;;4175085;28;20123;-61
2023/05/19 00:08:37;;;;;;;4.25;1.77;;;12.80;99.90;;;;;;4174137;28;20411;-61
2023/05/19 00:10:38;;;;;;;3.45;1.52;;;12.70;99.90;;;;;;4177253;28;20044;-61
2023/05/19 00:12:39;;;;;;;3.15;1.73;;;12.70;99.90;;;;;;4176585;28;20103;-60
2023/05/19 00:14:40;;;;;;;2.28;1.40;;;12.60;99.90;;;;;;4176357;28;20099;-61
2023/05/19 00:16:41;;;;;;;4.82;1.50;;;12.70;99.90;;;;;;4174121;28;20033;-61
2023/05/19 00:18:42;;;;;;;3.97;1.85;;;12.60;99.90;;;;;;4174887;28;20088;-60
2023/05/19 00:20:43;;;;;;;4.35;1.90;;;12.60;99.90;;;;;;4175539;28;20051;-61
2023/05/19 00:22:43;;;;;;;4.43;1.77;;;12.70;99.90;;;;;;4173959;28;20036;-60
2023/05/19 00:24:44;;;;;;;5.47;1.90;;;12.70;99.90;;;;;;4175835;28;20033;-61
2023/05/19 00:26:45;;;;;;;6.35;1.73;;;12.70;99.90;;;;;;4175655;28;20102;-61
2023/05/19 00:28:45;;;;;;;2.17;1.40;;;12.70;99.90;;;;;;4175782;28;20033;-61
2023/05/19 00:30:46;;;;;;;3.25;1.80;;;12.70;99.90;;;;;;4175428;28;20056;-60
2023/05/19 00:32:46;;;;;;;4.45;1.67;;;12.70;99.90;;;;;;4172371;28;20036;-61
2023/05/19 00:34:48;;;;;;;3.22;1.67;;;12.70;99.90;;;;;;4175999;28;20043;-61
2023/05/19 00:36:49;;;;;;;4.18;1.83;;;12.70;99.90;;;;;;4173801;28;20053;-61
2023/05/19 00:38:50;;;;;;;2.72;1.67;;;12.70;99.90;;;;;;4175862;28;20029;-61
2023/05/19 00:40:51;;;;;;;5.40;1.95;;;12.70;99.90;;;;;;4174023;28;20033;-61
2023/05/19 00:42:51;;;;;;;3.88;2.00;;;12.70;99.90;;;;;;4175779;28;20048;-61
2023/05/19 00:44:52;;;;;;;3.28;1.85;;;12.70;99.90;;;;;;4175772;28;20107;-60
2023/05/19 00:46:53;;;;;;;4.53;1.60;;;12.70;99.90;;;;;;4174842;28;20554;-61
2023/05/19 00:48:53;;;;;;;3.50;1.75;;;12.70;99.90;;;;;;4174794;28;20124;-63
2023/05/19 00:51:03;;;;;;;5.80;2.00;;;12.70;99.90;;;;;;4174364;28;20037;-62
2023/05/19 00:53:03;;;;;;;2.45;1.73;;;12.70;99.90;;;;;;4173715;28;20033;-61
2023/05/19 00:55:05;;;;;;;3.10;1.85;;;12.70;99.90;;;;;;4173908;28;20037;-61
2023/05/19 00:57:06;;;;;;;7.53;2.20;;;12.60;99.90;;;;;;4174234;28;20071;-61
2023/05/19 00:59:07;;;;;;;12.07;1.92;;;12.60;99.90;;;;;;4174878;28;20404;-60
2023/05/19 01:01:07;;;;;;;5.15;2.22;;;12.60;99.90;;;;;;4173501;28;21060;-60
2023/05/19 01:03:11;;;;;;;5.47;1.85;;;12.60;99.90;;;;;;4174739;28;20048;-61
2023/05/19 01:05:12;;;;;;;6.03;2.28;;;12.60;99.90;;;;;;4174526;28;20491;-61
2023/05/19 01:07:14;;;;;;;4.78;2.10;;;12.60;99.90;;;;;;4173621;28;20033;-60
2023/05/19 01:09:16;;;;;;;2.03;1.55;;;12.50;99.90;;;;;;4174536;28;20112;-61
2023/05/19 01:11:16;;;;;;;5.13;2.15;;;12.50;99.90;;;;;;4174000;28;20029;-60
2023/05/19 01:13:17;;;;;;;3.20;2.10;;;12.40;99.90;;;;;;4174119;28;20029;-61
2023/05/19 01:15:18;;;;;;;5.25;2.22;;;12.30;99.90;;;;;;4169666;28;20473;-60
2023/05/19 01:17:35;;;;;;;6.30;2.25;;;12.20;99.90;;;;;;4174455;28;20037;-61
2023/05/19 01:19:55;;;;;;;4.63;2.10;;;12.10;99.90;;;;;;4173545;28;20090;-61
2023/05/19 01:22:11;;;;;;;3.75;1.80;;;11.90;99.90;;;;;;4172004;28;20028;-61
2023/05/19 01:24:39;;;;;;;6.03;2.30;;;11.90;99.90;;;;;;4175309;28;20025;-60
2023/05/19 01:27:09;;;;;;;4.25;1.75;;;11.80;99.90;;;;;;4170028;28;20048;-60
2023/05/19 01:29:25;;;;;;;4.93;2.03;;;11.80;99.90;;;;;;4173021;28;20113;-60
2023/05/19 01:31:27;;;;;;;3.35;1.70;;;11.80;99.90;;;;;;4172650;28;20040;-61
2023/05/19 01:33:29;;;;;;;4.68;2.08;;;11.80;99.90;;;;;;4173028;28;20044;-61
2023/05/19 01:35:32;;;;;;;5.32;2.30;;;11.80;99.90;;;;;;4173399;28;20461;-60
2023/05/19 01:37:33;;;;;;;3.35;1.90;;;11.80;99.90;;;;;;4170359;28;20480;-61
2023/05/19 01:39:35;;;;;;;4.32;1.85;;;11.80;99.90;;;;;;4173082;28;20056;-60
2023/05/19 01:41:36;;;;;;;2.83;1.88;;;11.90;99.90;;;;;;4173356;28;20060;-60
2023/05/19 01:43:38;;;;;;;5.63;2.10;;;11.90;99.90;;;;;;4174157;28;20544;-60
2023/05/19 01:45:39;;;;;;;6.35;2.42;;;12.00;99.90;;;;;;4174809;28;20040;-60
2023/05/19 01:47:42;;;;;;;5.25;2.00;;;11.90;99.90;;;;;;4175745;28;20033;-60
2023/05/19 01:49:43;;;;;;;4.63;2.13;;;12.00;99.90;;;;;;4172549;28;20031;-60
2023/05/19 01:51:43;;;;;;;6.65;2.10;;;12.00;99.90;;;;;;4173014;28;20112;-60
2023/05/19 01:53:44;;;;;;;6.20;2.40;;;12.00;99.90;;;;;;4173740;28;20045;-60
2023/05/19 01:55:52;;;;;;;2.95;1.77;;;12.00;99.90;;;;;;4172423;28;20416;-60
2023/05/19 01:58:16;;;;;;;3.47;1.90;;;12.10;99.90;;;;;;4173589;28;20029;-61
2023/05/19 02:00:50;;;;;;;4.35;1.83;;;12.10;99.90;;;;;;4171980;28;20025;-60
2023/05/19 02:03:10;;;;;;;3.55;1.90;;;12.10;99.90;;;;;;4169385;28;20056;-60
2023/05/19 02:05:29;;;;;;;4.88;1.92;;;12.10;99.90;;;;;;4172768;28;20033;-61
2023/05/19 02:07:40;;;;;;;4.35;2.28;;;12.10;99.90;;;;;;4172984;28;20048;-61
2023/05/19 02:10:03;;;;;;;3.53;2.25;;;12.10;99.90;;;;;;4172774;28;20161;-60
2023/05/19 02:12:10;;;;;;;3.72;2.05;;;12.10;99.90;;;;;;4173116;28;20052;-61
2023/05/19 02:14:18;;;;;;;4.78;1.95;;;12.10;99.90;;;;;;4173211;28;20468;-61
2023/05/19 02:16:25;;;;;;;4.55;2.08;;;12.10;99.90;;;;;;4173620;28;20031;-61
2023/05/19 02:18:28;;;;;;;4.30;1.98;;;12.10;99.90;;;;;;4174417;28;20076;-61
2023/05/19 02:20:30;;;;;;;3.47;2.00;;;12.10;99.90;;;;;;4173296;28;20392;-61
2023/05/19 02:22:31;;;;;;;6.20;2.20;;;12.10;99.90;;;;;;4173902;28;20033;-60
2023/05/19 02:24:31;;;;;;;6.60;2.25;;;12.10;99.90;;;;;;4173806;28;20037;-61
2023/05/19 02:26:32;;;;;;;3.90;1.90;;;12.00;99.90;;;;;;4174427;28;20552;-61
2023/05/19 02:28:32;;;;;;;6.00;2.22;;;12.00;99.90;;;;;;4173894;28;20452;-61
2023/05/19 02:30:33;;;;;;;5.85;2.40;;;11.90;99.90;;;;;;4174616;28;20072;-61
2023/05/19 02:32:35;;;;;;;4.35;2.15;;;11.90;99.90;;;;;;4177032;28;20094;-60
2023/05/19 02:34:35;;;;;;;2.88;1.75;;;11.90;99.90;;;;;;4174863;28;20044;-61
2023/05/19 02:36:39;;;;;;;5.90;2.38;;;11.80;99.90;;;;;;4176511;28;20531;-60
2023/05/19 02:38:40;;;;;;;3.67;2.05;;;11.80;99.90;;;;;;4177521;28;20128;-61
2023/05/19 02:40:41;;;;;;;3.30;1.92;;;11.70;99.90;;;;;;4177028;28;20488;-61
2023/05/19 02:42:41;;;;;;;7.72;2.53;;;11.70;99.90;;;;;;4177159;28;20029;-60
2023/05/19 02:44:42;;;;;;;6.18;2.30;;;11.60;99.90;;;;;;4176830;28;20045;-60
2023/05/19 02:46:43;;;;;;;4.60;2.35;;;11.60;99.90;;;;;;4172026;28;20047;-60
2023/05/19 02:48:43;;;;;;;4.38;1.95;;;11.50;99.90;;;;;;4176875;28;20040;-60
2023/05/19 02:50:44;;;;;;;4.40;2.13;;;11.40;99.90;;;;;;4177054;28;20128;-60
2023/05/19 02:52:44;;;;;;;5.18;2.03;;;11.40;99.90;;;;;;4177434;28;20489;-60
2023/05/19 02:54:45;;;;;;;3.30;2.03;;;11.30;99.90;;;;;;4177242;28;20593;-60
2023/05/19 02:56:45;;;;;;;3.60;2.00;;;11.30;99.90;;;;;;4176128;28;21084;-60
2023/05/19 02:58:46;;;;;;;5.53;2.50;;;11.20;99.90;;;;;;4177703;28;20083;-60
2023/05/19 03:00:47;;;;;;;3.17;2.05;;;11.30;99.90;;;;;;4174888;28;20078;-60
2023/05/19 03:02:48;;;;;;;6.70;2.20;;;11.30;99.90;;;;;;4177599;28;20029;-60
2023/05/19 03:04:48;;;;;;;6.57;2.55;;;11.20;99.90;;;;;;4177267;28;20470;-60
2023/05/19 03:06:49;;;;;;;6.43;2.60;;;11.10;99.90;;;;;;4174312;28;20033;-60
2023/05/19 03:08:50;;;;;;;3.65;2.20;;;11.00;99.90;;;;;;4176473;28;20037;-62
2023/05/19 03:10:50;;;;;;;4.15;2.17;;;10.90;99.90;;;;;;4176256;28;20033;-62
2023/05/19 03:12:51;;;;;;;4.57;2.63;;;10.90;99.90;;;;;;4175426;28;20183;-61
2023/05/19 03:14:52;;;;;;;5.85;2.25;;;10.90;99.90;;;;;;4176362;28;20048;-61
2023/05/19 03:16:52;;;;;;;4.22;1.98;;;10.90;99.90;;;;;;4173180;28;20040;-60
2023/05/19 03:18:54;;;;;;;4.85;2.50;;;10.90;99.90;;;;;;4176102;28;20071;-61
2023/05/19 03:20:55;;;;;;;3.17;2.00;;;10.90;99.90;;;;;;4175946;28;20080;-61
2023/05/19 03:22:56;;;;;;;5.03;2.50;;;11.00;99.90;;;;;;4175345;28;20021;-60
2023/05/19 03:24:57;;;;;;;5.50;2.80;;;11.00;99.90;;;;;;4176892;28;20029;-62
2023/05/19 03:26:57;;;;;;;5.63;2.42;;;11.00;99.90;;;;;;4174955;28;20409;-61
2023/05/19 03:28:58;;;;;;;3.67;2.30;;;11.10;99.90;;;;;;4176505;28;20029;-60
2023/05/19 03:30:59;;;;;;;4.05;2.40;;;11.10;99.90;;;;;;4176183;28;20108;-61
2023/05/19 03:33:00;;;;;;;3.63;1.90;;;11.20;99.90;;;;;;4175740;28;20547;-60
2023/05/19 03:35:00;;;;;;;2.95;2.10;;;11.20;99.90;;;;;;4176017;28;20049;-61
2023/05/19 03:37:01;;;;;;;5.32;2.42;;;11.20;99.90;;;;;;4175614;28;20502;-60
2023/05/19 03:39:02;;;;;;;4.85;2.30;;;11.30;99.90;;;;;;4175413;28;20025;-60
2023/05/19 03:41:02;;;;;;;3.60;1.90;;;11.30;99.90;;;;;;4170257;28;20087;-60
2023/05/19 03:43:03;;;;;;;4.80;2.33;;;11.30;99.90;;;;;;4176124;28;20128;-60
2023/05/19 03:45:04;;;;;;;4.22;2.28;;;11.40;99.90;;;;;;4177580;28;20040;-61
2023/05/19 03:47:05;;;;;;;4.25;2.17;;;11.40;99.90;;;;;;4177140;28;20041;-61
2023/05/19 03:49:06;;;;;;;4.30;2.50;;;11.40;99.90;;;;;;4176962;28;20036;-60
2023/05/19 03:51:07;;;;;;;4.32;2.17;;;11.40;99.90;;;;;;4177133;28;20029;-61
2023/05/19 03:53:08;;;;;;;5.65;1.98;;;11.40;99.90;;;;;;4176973;28;20033;-61
2023/05/19 03:55:09;;;;;;;6.00;2.10;;;11.40;99.90;;;;;;4176892;28;20037;-62
2023/05/19 03:57:10;;;;;;;6.80;2.65;;;11.40;99.90;;;;;;4174537;28;20029;-60
2023/05/19 03:59:11;;;;;;;3.85;2.20;;;11.50;99.90;;;;;;4177960;28;20043;-61
2023/05/19 04:01:11;;;;;;;6.07;2.60;;;11.50;99.90;;;;;;4176570;28;20113;-60
2023/05/19 04:03:12;;;;;;;5.50;2.63;;;11.50;99.90;;;;;;4176574;28;20033;-60
2023/05/19 04:05:13;;;;;;;5.30;3.13;;;11.50;99.90;;;;;;4176593;28;20484;-61
2023/05/19 04:07:14;;;;;;;7.10;2.97;;;11.50;99.90;;;;;;4177143;28;20064;-60
2023/05/19 04:09:15;;;;;;;8.13;3.03;;;11.50;99.90;;;;;;4176283;28;20458;-60
2023/05/19 04:11:15;;;;;;;3.85;2.47;;;11.50;99.90;;;;;;4173655;28;20079;-60
2023/05/19 04:13:16;;;;;;;6.30;3.13;;;11.50;99.90;;;;;;4177166;28;20041;-60
2023/05/19 04:15:16;;;;;;;4.05;2.40;;;11.50;99.90;;;;;;4176981;28;20063;-60
2023/05/19 04:17:17;;;;;;;4.57;2.30;;;11.50;99.90;;;;;;4177538;28;20037;-60
2023/05/19 04:19:18;;;;;;;5.47;2.80;;;11.50;99.90;;;;;;4176277;28;20496;-60
2023/05/19 04:21:21;;;;;;;7.80;2.90;;;11.50;99.90;;;;;;4175290;28;20041;-60
2023/05/19 04:23:21;;;;;;;4.53;2.60;;;11.50;99.90;;;;;;4175246;28;21984;-61
2023/05/19 04:25:24;;;;;;;4.18;2.50;;;11.50;99.90;;;;;;4174624;28;20102;-61
2023/05/19 04:27:26;;;;;;;5.38;2.63;;;11.50;99.90;;;;;;4176042;28;20033;-61
2023/05/19 04:29:31;;;;;;;7.65;2.80;;;11.50;99.90;;;;;;4176008;28;20032;-64
2023/05/19 04:31:33;;;;;;;4.80;2.72;;;11.50;99.90;;;;;;4173488;28;20420;-60
2023/05/19 04:33:33;;;;;;;6.60;2.67;;;11.50;99.90;;;;;;4175112;28;20044;-60
2023/05/19 04:35:34;;;;;;;7.18;2.80;;;11.50;99.90;;;;;;4175529;28;20044;-60
2023/05/19 04:37:37;;;;;;;5.25;2.70;;;11.50;99.90;;;;;;4175450;28;20041;-60
2023/05/19 04:39:39;;;;;;;11.15;3.30;;;11.60;99.90;;;;;;4175066;28;20044;-60
2023/05/19 04:41:39;;;;;;;7.07;3.10;;;11.60;99.90;;;;;;4174631;28;20041;-60
2023/05/19 04:43:43;;;;;;;5.82;2.90;;;11.60;99.90;;;;;;4173564;28;20037;-60
2023/05/19 04:45:45;;;;;;;6.35;3.28;;;11.60;99.90;;;;;;4175416;28;20032;-60
2023/05/19 04:47:46;;;;;;;6.40;3.03;;;11.60;99.90;;;;;;4174615;28;20041;-60
2023/05/19 04:49:47;;;;;;;7.57;3.40;;;11.60;99.90;;;;;;4175384;28;20108;-60
2023/05/19 04:51:49;;;;;;;4.80;2.75;;;11.60;99.90;;;;;;4173064;28;20704;-60
2023/05/19 04:53:50;;;;;;;5.47;3.10;;;11.60;99.90;;;;;;4173827;28;20045;-60
2023/05/19 04:55:50;;;;;;;3.65;2.70;;;11.60;99.90;;;;;;4175089;28;20033;-60
2023/05/19 04:57:51;;;;;;;6.72;2.97;;;11.60;99.90;;;;;;4174693;28;20025;-65
2023/05/19 04:59:52;;;;;;;4.55;2.95;;;11.60;99.90;;;;;;4175656;28;20384;-61
2023/05/19 05:01:52;;;;;;;4.85;2.58;;;11.60;99.90;;;;;;4174733;28;20076;-62
2023/05/19 05:03:54;;;;;;;5.45;3.42;;;11.60;99.90;;;;;;4173889;28;20488;-61
2023/05/19 05:05:55;;;;;;;6.22;3.25;;;11.50;99.90;;;;;;4174756;28;20041;-61
2023/05/19 05:07:56;;;;;;;6.32;3.08;;;11.50;99.90;;;;;;4175240;28;20041;-60
2023/05/19 05:09:57;;;;;;;7.18;3.55;;;11.40;99.90;;;;;;4170089;28;21347;-60
2023/05/19 05:11:57;;;;;;;7.72;3.58;;;11.40;99.90;;;;;;4174592;28;20033;-61
2023/05/19 05:13:58;;;;;;;10.02;4.07;;;11.30;99.90;;;;;;4172272;28;20517;-61
2023/05/19 05:15:59;;;;;;;5.75;3.58;;;11.20;99.90;;;;;;4173978;28;20025;-61
2023/05/19 05:18:00;;;;;;;6.45;3.28;;;11.20;99.90;;;;;;4175312;28;20465;-61
2023/05/19 05:20:03;;;;;;;7.65;3.83;;;11.20;99.90;;;;;;4174695;28;20518;-61
2023/05/19 05:22:05;;;;;;;9.45;3.85;;;11.20;99.90;;;;;;4171773;28;20033;-60
2023/05/19 05:24:06;;;;;;;7.30;3.28;;;11.10;99.90;;;;;;4174088;28;20079;-60
2023/05/19 05:26:17;;;;;;;7.15;3.63;;;11.10;99.90;;;;;;4174210;28;20095;-60
2023/05/19 05:28:18;;;;;;;5.70;3.20;;;11.10;99.90;;;;;;4174708;28;20369;-60
2023/05/19 05:30:18;;;;;;;8.70;3.53;;;11.10;99.90;;;;;;4173790;28;20086;-60
2023/05/19 05:32:19;;;;;;;7.03;3.03;;;11.10;99.90;;;;;;4174792;28;20064;-60
2023/05/19 05:34:20;;;;;;;7.07;3.25;;;11.30;99.90;;;;;;4173855;28;20040;-60
2023/05/19 05:36:20;;;;;;;5.50;2.92;;;11.40;99.90;;;;;;4173761;28;20068;-60
2023/05/19 05:38:21;;;;;;;7.10;3.85;;;11.50;99.90;;;;;;4174935;28;20476;-61
2023/05/19 05:40:21;;;;;;;11.00;3.78;;;11.50;99.90;;;;;;4174390;28;20407;-60
2023/05/19 05:42:22;;;;;;;7.10;3.20;;;11.60;99.90;;;;;;4175108;28;20443;-64
2023/05/19 05:44:22;;;;;;;6.70;3.33;;;11.60;99.90;;;;;;4173602;28;20033;-60
2023/05/19 05:46:23;;;;;;;8.63;3.80;;;11.70;99.90;;;;;;4173509;28;20071;-61
2023/05/19 05:48:24;;;;;;;5.32;3.30;;;11.70;99.90;;;;;;4174750;28;20044;-60
2023/05/19 05:50:25;;;;;;;7.82;3.60;;;11.80;99.90;;;;;;4172115;28;20512;-61
2023/05/19 05:52:29;;;;;;;6.88;3.53;;;11.80;99.90;;;;;;4173325;28;20397;-60
2023/05/19 05:54:30;;;;;;;8.13;3.65;;;11.80;99.90;;;;;;4174436;28;20140;-62
2023/05/19 05:56:32;;;;;;;7.57;3.60;;;11.80;99.90;;;;;;4171957;28;20033;-61
2023/05/19 05:58:34;;;;;;;9.50;3.83;;;11.80;99.90;;;;;;4173673;28;20025;-61
2023/05/19 06:00:35;;;;;;;9.10;3.70;;;11.80;99.90;;;;;;4171940;28;20035;-60
2023/05/19 06:02:36;;;;;;;10.75;4.10;;;11.90;99.90;;;;;;4175736;28;20771;-61
2023/05/19 06:04:36;;;;;;;7.38;4.10;;;11.90;99.90;;;;;;4174909;28;20037;-61
2023/05/19 06:06:37;;;;;;;9.10;3.83;;;12.10;99.90;;;;;;4176079;28;20041;-61
2023/05/19 06:08:38;;;;;;;8.60;3.83;;;12.30;99.90;;;;;;4178239;28;20060;-61
2023/05/19 06:10:40;;;;;;;9.35;3.90;;;12.60;99.90;;;;;;4177866;28;20037;-61
2023/05/19 06:12:42;;;;;;;9.18;3.85;;;12.90;99.90;;;;;;4178407;28;20042;-61
2023/05/19 06:14:42;;;;;;;13.38;4.65;;;13.20;99.90;;;;;;4176313;28;20051;-61
2023/05/19 06:16:43;;;;;;;11.45;4.15;;;13.60;99.90;;;;;;4175508;28;20024;-61
2023/05/19 06:18:43;;;;;;;11.68;4.10;;;13.90;99.90;;;;;;4175756;28;20055;-61
2023/05/19 06:20:44;;;;;;;11.65;3.65;;;14.30;99.90;;;;;;4175367;28;20092;-61
2023/05/19 06:22:44;;;;;;;10.27;3.63;;;14.70;99.90;;;;;;4177634;28;20033;-62
2023/05/19 06:24:45;;;;;;;9.60;3.40;;;15.10;99.90;;;;;;4176579;28;20361;-61
2023/05/19 06:26:46;;;;;;;8.20;3.20;;;15.50;99.90;;;;;;4176200;28;20045;-61
2023/05/19 06:28:46;;;;;;;6.07;3.15;;;15.80;99.90;;;;;;4174612;28;20548;-62
2023/05/19 06:30:47;;;;;;;6.10;3.10;;;16.30;99.90;;;;;;4174753;28;20369;-62
2023/05/19 06:32:47;;;;;;;6.60;3.13;;;16.60;99.90;;;;;;4177459;28;20527;-62
2023/05/19 06:34:53;;;;;;;6.88;2.58;;;17.00;99.90;;;;;;4179365;28;20029;-64
2023/05/19 06:36:53;;;;;;;6.75;3.35;;;17.40;99.90;;;;;;4176408;28;20033;-65
2023/05/19 06:38:55;;;;;;;5.38;2.40;;;17.70;99.90;;;;;;4174291;28;20091;-65
2023/05/19 06:40:55;;;;;;;9.43;3.00;;;18.00;99.90;;;;;;4179430;28;20400;-65
2023/05/19 06:42:56;;;;;;;5.13;2.47;;;18.20;99.90;;;;;;4179591;28;20025;-66
2023/05/19 06:44:56;;;;;;;7.35;2.65;;;18.40;99.90;;;;;;4169630;28;20033;-66
2023/05/19 06:46:57;;;;;;;5.65;2.70;;;18.60;99.90;;;;;;4172523;28;20472;-65
2023/05/19 06:48:57;;;;;;;6.85;2.60;;;18.80;99.90;;;;;;4175401;28;20060;-66
2023/05/19 06:50:58;;;;;;;6.85;2.72;;;18.90;99.90;;;;;;4174729;28;20037;-66
2023/05/19 06:52:59;;;;;;;7.05;2.95;;;18.80;99.00;;;;;;4176006;28;20496;-66
2023/05/19 06:54:59;;;;;;;6.07;2.60;;;18.70;97.10;;;;;;4173242;28;20037;-66
2023/05/19 06:57:00;;;;;;;5.55;2.65;;;18.60;99.60;;;;;;4173125;28;20040;-66
2023/05/19 06:59:00;;;;;;;8.23;2.95;;;18.70;99.90;;;;;;4174477;28;20033;-66
2023/05/19 07:01:01;;;;;;;10.43;2.72;;;18.60;99.20;;;;;;4171265;28;20083;-66
2023/05/19 07:03:02;;;;;;;6.63;2.42;;;18.70;99.90;;;;;;4174114;28;20025;-66
2023/05/19 07:05:03;;;;;;;6.25;2.63;;;18.80;99.90;;;;;;4174754;28;20131;-68
2023/05/19 07:07:03;;;;;;;6.95;2.72;;;18.80;98.30;;;;;;4170923;28;20507;-66
2023/05/19 07:09:04;;;;;;;9.65;2.40;;;18.70;99.60;;;;;;4173891;28;20047;-66
2023/05/19 07:11:04;;;;;;;6.82;2.97;;;18.80;99.90;;;;;;4172779;28;20539;-66
2023/05/19 07:13:05;;;;;;;7.20;3.00;;;18.70;97.30;;;;;;4171308;28;20095;-65
2023/05/19 07:15:06;;;;;;;7.65;2.67;;;18.70;99.00;;;;;;4163161;28;20530;-66
2023/05/19 07:17:08;;;;;;;7.10;2.78;;;18.60;96.60;;;;;;4172738;28;20098;-66
2023/05/19 07:19:08;;;;;;;6.27;2.60;;;18.60;98.10;;;;;;4173647;28;20049;-65
2023/05/19 07:21:09;;;;;;;7.60;3.03;;;18.60;97.30;;;;;;4173509;28;20030;-66
2023/05/19 07:23:10;;;;;;;6.30;2.90;;;18.70;98.00;;;;;;4175180;28;20025;-66
2023/05/19 07:25:10;;;;;;;7.55;3.15;;;18.70;98.90;;;;;;4173641;28;20071;-66
2023/05/19 07:27:11;;;;;;;10.25;3.17;;;18.70;98.30;;;;;;4175427;28;20033;-65
2023/05/19 07:29:11;;;;;;;10.57;3.60;;;18.60;96.40;;;;;;4172307;28;20037;-66
2023/05/19 07:31:12;;;;;;;5.75;2.72;;;18.40;96.90;;;;;;4175846;28;20040;-66
2023/05/19 07:33:13;;;;;;;7.97;3.33;;;18.50;97.70;;;;;;4174805;28;20526;-66
2023/05/19 07:35:13;;;;;;;10.02;3.17;;;18.50;98.50;;;;;;4171960;28;20178;-66
2023/05/19 07:37:15;;;;;;;8.48;2.70;;;18.30;95.90;;;;;;4173467;28;20131;-66
2023/05/19 07:39:15;;;;;;;7.38;3.10;;;18.30;96.80;;;;;;4174518;28;20120;-66
2023/05/19 07:41:16;;;;;;;7.63;2.60;;;18.30;97.40;;;;;;4172120;28;20067;-65
2023/05/19 07:43:16;;;;;;;8.73;2.83;;;18.30;97.70;;;;;;4173869;28;20439;-66
2023/05/19 07:45:17;;;;;;;10.23;3.15;;;18.30;97.30;;;;;;4171917;28;20037;-66
2023/05/19 07:47:18;;;;;;;6.82;2.75;;;18.10;96.30;;;;;;4174760;28;20456;-66
2023/05/19 07:49:18;;;;;;;7.72;2.50;;;18.00;97.30;;;;;;4173090;28;20037;-66
2023/05/19 07:51:19;;;;;;;6.35;2.72;;;18.20;98.40;;;;;;4163612;28;20125;-65
2023/05/19 07:53:21;;;;;;;8.68;2.42;;;18.30;98.00;;;;;;4186091;28;20439;-66
2023/05/19 07:55:21;;;;;;;5.43;2.30;;;18.30;97.40;;;;;;4171621;28;20412;-65
2023/05/19 07:57:22;;;;;;;6.60;2.15;;;18.30;97.70;;;;;;4172931;28;20045;-65
2023/05/19 07:59:23;;;;;;;6.22;2.53;;;18.30;97.70;;;;;;4173287;28;20071;-64
2023/05/19 08:01:23;;;;;;;5.60;2.60;;;18.40;99.30;;;;;;4171809;28;20452;-66
2023/05/19 08:03:25;;;;;;;5.95;2.58;;;18.60;99.10;;;;;;4174085;28;20033;-69
2023/05/19 08:05:26;;;;;;;8.35;2.90;;;18.60;96.30;;;;;;4173113;28;20087;-66
2023/05/19 08:07:26;;;;;;;6.50;2.15;;;18.60;96.40;;;;;;4172666;28;20040;-66
2023/05/19 08:09:27;;;;;;;7.50;2.50;;;18.80;98.80;;;;;;4174234;28;20123;-66
2023/05/19 08:11:27;;;;;;;6.18;1.92;;;18.90;98.40;;;;;;4171841;28;20056;-66
2023/05/19 08:13:28;;;;;;;5.25;2.20;;;19.00;98.50;;;;;;4173486;28;20469;-66
2023/05/19 08:15:28;;;;;;;6.32;2.05;;;19.00;95.60;;;;;;4171151;28;21460;-66
2023/05/19 08:17:29;;;;;;;4.75;1.85;;;19.10;96.30;;;;;;4174042;28;20048;-64
2023/05/19 08:19:30;;;;;;;6.90;2.15;;;19.20;96.10;;;;;;4173622;28;20554;-65
2023/05/19 08:21:33;;;;;;;6.80;2.22;;;19.00;94.00;;;;;;4172598;28;20025;-65
2023/05/19 08:23:36;;;;;;;8.65;2.63;;;19.20;97.40;;;;;;4155432;28;20034;-66
2023/05/19 08:25:36;;;;;;;;;;;19.10;92.20;;;;;;4173753;28;20036;-66
2023/05/19 08:27:37;;;;;;;6.57;1.92;;;19.10;93.90;;;;;;4173657;28;20012;-65
2023/05/19 08:29:37;;;;;;;5.13;1.83;;;19.20;95.30;;;;;;4172332;28;20033;-66
2023/05/19 08:31:38;;;;;;;3.88;1.73;;;19.30;96.90;;;;;;4172641;28;20377;-65
2023/05/19 08:33:38;;;;;;;10.60;2.55;;;19.30;93.10;;;;;;4174616;28;20412;-65
2023/05/19 08:35:39;;;;;;;8.93;2.65;;;19.00;91.90;;;;;;4172314;28;20453;-66
2023/05/19 08:37:39;;;;;;;5.05;1.95;;;19.00;92.70;;;;;;4172652;28;20450;-66
2023/05/19 08:39:40;;;;;;;4.68;2.10;;;19.00;94.20;;;;;;4172971;28;20037;-65
2023/05/19 08:41:41;;;;;;;7.43;2.40;;;19.10;92.90;;;;;;4171699;28;20509;-66
2023/05/19 08:43:42;;;;;;;6.07;1.85;;;19.20;90.90;;;;;;4172563;28;20128;-65
2023/05/19 08:45:47;;;;;;;8.52;2.60;;;19.10;89.70;;;;;;4172877;28;20115;-66
2023/05/19 08:47:49;;;;;;;11.65;2.92;;;19.20;90.20;;;;;;4173706;28;20040;-65
2023/05/19 08:49:54;;;;;;;6.40;2.40;;;19.00;90.90;;;;;;4170840;28;20485;-66
2023/05/19 08:52:08;;;;;;;6.57;2.03;;;19.10;87.40;;;;;;4168790;28;20091;-66
2023/05/19 08:54:16;;;;;;;7.78;2.20;;;19.00;86.30;;;;;;4170933;28;20037;-66
2023/05/19 08:56:23;;;;;;;8.45;2.63;;;19.10;90.10;;;;;;4169011;28;20103;-65
2023/05/19 08:58:25;;;;;;;12.00;2.45;;;19.10;87.60;;;;;;4173268;28;20047;-65
2023/05/19 09:00:27;;;;;;;6.82;1.73;;;19.10;84.30;;;;;;4169706;28;20037;-67
2023/05/19 09:02:28;;;;;;;8.50;2.10;;;18.80;83.70;;;;;;4172786;28;20048;-66
2023/05/19 09:04:30;;;;;;;3.65;1.45;;;18.70;89.00;;;;;;4172370;28;21062;-66
2023/05/19 09:06:31;;;;;;;;;;;18.70;88.50;;;;;;4171554;28;20499;-66
2023/05/19 09:08:32;;;;;;;5.65;1.40;;;18.80;85.40;;;;;;4172238;28;19960;-66
2023/05/19 09:10:32;;;;;;;4.65;1.77;;;18.90;89.00;;;;;;4171934;28;20179;-67
2023/05/19 09:12:33;;;;;;;3.42;1.48;;;19.00;88.50;;;;;;4173049;28;20051;-66
2023/05/19 09:14:35;;;;;;;5.53;1.80;;;19.10;90.50;;;;;;4170008;28;20063;-66
2023/05/19 09:16:35;;;;;;;5.18;1.70;;;19.10;92.30;;;;;;4171461;28;20052;-66
2023/05/19 09:18:39;;;;;;;9.65;2.10;;;19.20;83.90;;;;;;4170393;28;20037;-66
2023/05/19 09:20:42;;;;;;;10.18;2.50;;;19.20;83.40;;;;;;4168299;28;20036;-67
2023/05/19 09:22:46;;;;;;;;;;;19.20;90.60;;;;;;4171152;28;20040;-66
2023/05/19 09:24:47;;;;;;;6.60;2.53;;;19.30;90.50;;;;;;4172597;28;20371;-65
2023/05/19 09:26:47;;;;;;;11.35;2.55;;;19.20;86.60;;;;;;4169806;28;20499;-66
2023/05/19 09:28:48;;;;;;;7.07;2.30;;;19.10;86.40;;;;;;4170129;28;20125;-66
2023/05/19 09:30:57;;;;;;;6.97;2.45;;;18.90;86.10;;;;;;4170939;28;20088;-66
2023/05/19 09:32:57;;;;;;;8.95;2.10;;;18.90;86.40;;;;;;4172244;28;20060;-67
2023/05/19 09:34:58;;;;;;;4.13;1.88;;;19.00;83.90;;;;;;4173089;28;20454;-66
2023/05/19 09:36:59;;;;;;;6.47;2.60;;;19.00;85.40;;;;;;4172211;28;20040;-67
2023/05/19 09:38:59;;;;;;;10.88;2.08;;;19.10;87.50;;;;;;4171211;28;20025;-66
2023/05/19 09:41:00;;;;;;;8.85;2.20;;;19.00;85.80;;;;;;4172316;28;20068;-66
2023/05/19 09:43:04;;;;;;;9.05;2.45;;;19.00;87.40;;;;;;4176089;28;20798;-66
2023/05/19 09:45:06;;;;;;;8.70;2.47;;;19.10;88.20;;;;;;4173692;28;20090;-66
2023/05/19 09:47:08;;;;;;;7.87;2.33;;;19.10;87.20;;;;;;4174023;28;20116;-66
2023/05/19 09:49:09;;;;;;;5.32;2.17;;;19.10;88.70;;;;;;4176129;28;20366;-66
2023/05/19 09:51:10;;;;;;;6.90;1.98;;;19.20;90.30;;;;;;4174655;28;20116;-66
2023/05/19 09:53:13;;;;;;;4.97;1.85;;;19.20;82.80;;;;;;4174496;28;20060;-66
2023/05/19 09:55:14;;;;;;;8.02;2.30;;;19.30;88.90;;;;;;4170586;28;20041;-67
2023/05/19 09:57:14;;;;;;;5.40;1.70;;;19.40;89.90;;;;;;4170542;28;20087;-65
2023/05/19 09:59:15;;;;;;;5.78;2.28;;;19.50;87.20;;;;;;4175190;28;20214;-66
2023/05/19 10:01:17;;;;;;;8.07;2.45;;;19.40;82.30;;;;;;4172957;28;20558;-66
2023/05/19 10:03:19;;;;;;;5.03;1.92;;;19.30;87.10;;;;;;4174094;28;20025;-66
2023/05/19 10:05:20;;;;;;;7.83;2.63;;;19.40;86.70;;;;;;4174055;28;20043;-66
2023/05/19 10:07:23;;;;;;;8.43;3.08;;;19.40;87.10;;;;;;4175524;28;20127;-67
2023/05/19 10:09:28;;;;;;;10.30;2.25;;;19.20;84.50;;;;;;4174953;28;20106;-66
2023/05/19 10:11:29;;;;;;;4.55;2.00;;;19.40;87.20;;;;;;4174959;28;20519;-67
2023/05/19 10:13:30;;;;;;;7.22;2.40;;;19.50;90.30;;;;;;4175687;28;20109;-66
2023/05/19 10:15:32;;;;;;;6.07;2.00;;;19.60;86.70;;;;;;4173045;28;20066;-66
2023/05/19 10:17:34;;;;;;;9.05;2.15;;;19.60;82.00;;;;;;4177605;28;20033;-66
2023/05/19 10:19:35;;;;;;;4.75;2.08;;;19.70;81.50;;;;;;4176290;28;20037;-66
2023/05/19 10:21:36;;;;;;;5.72;2.20;;;19.70;81.80;;;;;;4175999;28;20106;-66
2023/05/19 10:23:37;;;;;;;6.88;2.10;;;19.70;85.80;;;;;;4175248;28;20029;-66
2023/05/19 10:25:38;;;;;;;6.93;2.25;;;19.80;85.60;;;;;;4175545;28;20025;-66
2023/05/19 10:28:00;;;;;;;6.70;2.20;;;19.70;81.90;;;;;;4175725;28;20473;-66
2023/05/19 10:30:08;;;;;;;8.82;2.55;;;19.70;85.40;;;;;;4176629;28;20037;-67
2023/05/19 10:32:14;;;;;;;8.88;2.63;;;19.70;84.40;;;;;;4176648;28;20559;-66
2023/05/19 10:34:49;;;;;;;5.55;1.90;;;19.50;87.40;;;;;;4174584;28;20033;-66
2023/05/19 10:36:58;;;;;;;7.40;2.60;;;19.70;89.30;;;;;;4172757;28;20025;-66